createdAt,value
2018-06-07T00:01:20.536Z,3.30
2018-06-07T00:03:48.589Z,4.40
2018-06-07T00:06:16.638Z,4.95
2018-06-07T00:08:44.704Z,6.00
2018-06-07T00:11:12.788Z,3.70
2018-06-07T00:13:40.839Z,4.80
2018-06-07T00:16:09.030Z,4.40
2018-06-07T00:18:37.083Z,4.05
2018-06-07T00:21:05.178Z,7.28
2018-06-07T00:23:33.233Z,3.52
2018-06-07T00:26:01.284Z,4.90
2018-06-07T00:28:29.340Z,5.97
2018-06-07T00:30:57.388Z,5.75
2018-06-07T00:33:25.425Z,2.37
2018-06-07T00:35:53.505Z,2.12
2018-06-07T00:38:21.562Z,3.40
2018-06-07T00:40:49.608Z,4.35
2018-06-07T00:43:17.688Z,3.02
2018-06-07T00:45:45.777Z,4.50
2018-06-07T00:48:13.817Z,4.20
2018-06-07T00:50:41.874Z,4.67
2018-06-07T00:53:09.938Z,2.25
2018-06-07T00:55:37.985Z,3.27
2018-06-07T00:58:06.033Z,7.10
2018-06-07T01:00:34.103Z,3.52
2018-06-07T01:03:02.136Z,4.78
2018-06-07T01:05:30.204Z,4.87
2018-06-07T01:07:58.269Z,4.90
2018-06-07T01:10:26.323Z,3.77
2018-06-07T01:12:54.352Z,2.72
2018-06-07T01:15:22.411Z,2.77
2018-06-07T01:17:50.473Z,3.25
2018-06-07T01:20:18.541Z,2.15
2018-06-07T01:22:46.625Z,2.95
2018-06-07T01:25:14.712Z,2.72
2018-06-07T01:27:42.752Z,2.40
2018-06-07T01:30:27.619Z,2.30
2018-06-07T01:33:27.419Z,2.50
2018-06-07T01:35:59.406Z,2.60
2018-06-07T01:38:38.908Z,2.55
2018-06-07T01:41:06.990Z,3.72
2018-06-07T01:43:35.062Z,3.50
2018-06-07T01:46:03.117Z,2.30
2018-06-07T01:48:31.199Z,1.80
2018-06-07T01:50:59.292Z,2.40
2018-06-07T01:53:27.343Z,3.95
2018-06-07T01:55:55.437Z,4.60
2018-06-07T01:58:23.480Z,2.17
2018-06-07T02:00:51.612Z,2.27
2018-06-07T02:03:19.659Z,2.83
2018-06-07T02:05:47.741Z,3.58
2018-06-07T02:08:15.791Z,2.92
2018-06-07T02:10:43.853Z,4.70
2018-06-07T02:13:11.899Z,3.17
2018-06-07T02:15:39.952Z,1.70
2018-06-07T02:18:08.004Z,2.17
2018-06-07T02:20:36.052Z,1.65
2018-06-07T02:23:04.151Z,2.45
2018-06-07T02:25:32.232Z,3.00
2018-06-07T02:28:00.277Z,3.60
2018-06-07T02:30:28.337Z,2.12
2018-06-07T02:32:56.440Z,3.70
2018-06-07T02:35:24.506Z,2.52
2018-06-07T02:37:52.551Z,1.95
2018-06-07T02:40:20.601Z,2.30
2018-06-07T02:42:48.680Z,2.92
2018-06-07T02:45:16.775Z,4.17
2018-06-07T02:47:44.864Z,1.75
2018-06-07T02:50:12.937Z,1.55
2018-06-07T02:52:41.009Z,2.30
2018-06-07T02:55:09.063Z,1.75
2018-06-07T02:57:37.108Z,1.90
2018-06-07T03:00:05.405Z,3.00
2018-06-07T03:02:33.483Z,2.25
2018-06-07T03:05:01.566Z,2.42
2018-06-07T03:07:29.628Z,3.00
2018-06-07T03:09:57.671Z,3.33
2018-06-07T03:12:25.732Z,3.17
2018-06-07T03:15:00.252Z,1.80
2018-06-07T03:17:28.329Z,2.33
2018-06-07T03:19:56.409Z,2.20
2018-06-07T03:22:24.452Z,1.40
2018-06-07T03:24:52.496Z,2.15
2018-06-07T03:27:20.555Z,1.77
2018-06-07T03:29:48.604Z,1.60
2018-06-07T03:32:16.680Z,2.90
2018-06-07T03:34:44.844Z,2.27
2018-06-07T03:37:12.888Z,2.33
2018-06-07T03:39:40.955Z,2.60
2018-06-07T03:42:08.999Z,1.98
2018-06-07T03:44:37.035Z,1.82
2018-06-07T03:47:05.357Z,2.47
2018-06-07T03:49:33.396Z,2.85
2018-06-07T03:52:01.456Z,1.55
2018-06-07T03:54:33.670Z,2.35
2018-06-07T03:57:01.737Z,2.55
2018-06-07T03:59:29.776Z,2.75
2018-06-07T04:01:57.826Z,4.00
2018-06-07T04:04:25.870Z,2.37
2018-06-07T04:06:53.924Z,1.98
2018-06-07T04:09:21.992Z,2.83
2018-06-07T04:11:50.047Z,1.42
2018-06-07T04:14:18.089Z,2.95
2018-06-07T04:16:46.201Z,2.30
2018-06-07T04:19:14.262Z,1.70
2018-06-07T04:21:42.380Z,2.70
2018-06-07T04:24:10.855Z,1.90
2018-06-07T04:26:38.916Z,1.95
2018-06-07T04:29:06.957Z,2.22
2018-06-07T04:31:35.004Z,5.47
2018-06-07T04:34:03.033Z,2.42
2018-06-07T04:36:31.095Z,2.00
2018-06-07T04:38:59.128Z,2.25
2018-06-07T04:41:27.176Z,2.40
2018-06-07T04:43:55.250Z,2.40
2018-06-07T04:46:23.281Z,2.65
2018-06-07T04:48:51.332Z,2.40
2018-06-07T04:51:19.371Z,1.67
2018-06-07T04:53:47.493Z,1.52
2018-06-07T04:56:15.556Z,1.27
2018-06-07T04:58:43.636Z,1.57
2018-06-07T05:01:11.716Z,1.98
2018-06-07T05:03:39.797Z,1.80
2018-06-07T05:06:07.860Z,3.55
2018-06-07T05:08:35.946Z,3.62
2018-06-07T05:11:04.007Z,2.50
2018-06-07T05:13:32.081Z,2.05
2018-06-07T05:16:00.140Z,2.00
2018-06-07T05:18:28.220Z,1.70
2018-06-07T05:20:56.265Z,2.27
2018-06-07T05:23:24.332Z,1.70
2018-06-07T05:25:52.407Z,2.42
2018-06-07T05:28:20.472Z,2.12
2018-06-07T05:30:48.520Z,1.92
2018-06-07T05:33:16.568Z,1.80
2018-06-07T05:35:44.689Z,1.90
2018-06-07T05:38:12.765Z,4.75
2018-06-07T05:40:40.861Z,3.72
2018-06-07T05:43:08.914Z,3.77
2018-06-07T05:45:36.995Z,3.45
2018-06-07T05:48:05.159Z,2.35
2018-06-07T05:50:33.242Z,2.58
2018-06-07T05:53:01.312Z,2.52
2018-06-07T05:55:29.380Z,2.58
2018-06-07T05:57:57.441Z,2.05
2018-06-07T06:00:25.531Z,2.33
2018-06-07T06:02:53.656Z,2.20
2018-06-07T06:05:21.683Z,2.33
2018-06-07T06:07:49.714Z,2.60
2018-06-07T06:10:17.762Z,3.77
2018-06-07T06:12:45.836Z,3.75
2018-06-07T06:15:13.924Z,3.70
2018-06-07T06:17:42.012Z,2.58
2018-06-07T06:20:10.073Z,3.58
2018-06-07T06:22:38.151Z,3.00
2018-06-07T06:25:06.220Z,3.47
2018-06-07T06:27:34.255Z,4.72
2018-06-07T06:30:02.352Z,4.08
2018-06-07T06:32:30.405Z,3.55
2018-06-07T06:34:58.501Z,3.20
2018-06-07T06:38:34.529Z,3.55
2018-06-07T06:41:02.641Z,2.72
2018-06-07T06:43:30.805Z,3.00
2018-06-07T06:45:58.857Z,2.62
2018-06-07T06:48:26.925Z,3.10
2018-06-07T06:50:54.956Z,3.77
2018-06-07T06:53:23.000Z,7.15
2018-06-07T06:55:51.051Z,4.60
2018-06-07T06:58:19.100Z,5.08
2018-06-07T07:00:47.157Z,3.77
2018-06-07T07:03:15.215Z,4.95
2018-06-07T07:05:43.261Z,3.62
2018-06-07T07:08:11.301Z,4.05
2018-06-07T07:10:39.344Z,5.20
2018-06-07T07:13:07.396Z,3.15
2018-06-07T07:15:35.445Z,3.08
2018-06-07T07:18:03.488Z,4.40
2018-06-07T07:20:31.548Z,4.28
2018-06-07T07:22:59.606Z,4.90
2018-06-07T07:25:27.724Z,6.40
2018-06-07T07:27:55.728Z,3.98
2018-06-07T07:30:23.792Z,3.60
2018-06-07T07:32:51.832Z,5.08
2018-06-07T07:35:19.904Z,6.65
2018-06-07T07:37:47.953Z,5.17
2018-06-07T07:40:15.997Z,5.40
2018-06-07T07:42:44.032Z,5.75
2018-06-07T07:45:12.096Z,12.40
2018-06-07T07:47:40.136Z,8.85
2018-06-07T07:50:08.184Z,5.97
2018-06-07T07:52:36.212Z,9.20
2018-06-07T07:55:04.268Z,7.40
2018-06-07T07:57:32.301Z,7.20
2018-06-07T08:00:00.347Z,11.65
2018-06-07T08:02:28.441Z,12.03
2018-06-07T08:04:56.492Z,8.28
2018-06-07T08:07:24.545Z,8.95
2018-06-07T08:09:52.600Z,11.22
2018-06-07T08:12:20.644Z,11.57
2018-06-07T08:14:48.720Z,13.13
2018-06-07T08:17:16.792Z,10.30
2018-06-07T08:19:44.840Z,9.75
2018-06-07T08:22:12.903Z,12.95
2018-06-07T08:24:40.992Z,21.57
2018-06-07T08:27:09.049Z,12.95
2018-06-07T08:29:37.099Z,13.70
2018-06-07T08:32:05.199Z,10.38
2018-06-07T08:34:33.240Z,14.30
2018-06-07T08:37:01.316Z,10.00
2018-06-07T08:39:29.419Z,13.65
2018-06-07T08:41:57.426Z,12.07
2018-06-07T08:44:25.486Z,12.37
2018-06-07T08:46:53.552Z,12.60
2018-06-07T08:49:21.600Z,17.42
2018-06-07T08:51:49.652Z,15.60
2018-06-07T08:54:17.695Z,13.85
2018-06-07T08:56:45.733Z,12.33
2018-06-07T08:59:13.777Z,11.45
2018-06-07T09:01:41.822Z,14.20
2018-06-07T09:04:10.076Z,15.85
2018-06-07T09:06:38.120Z,13.78
2018-06-07T09:09:06.759Z,13.78
2018-06-07T09:11:35.343Z,16.90
2018-06-07T09:14:03.678Z,16.77
2018-06-07T09:16:31.709Z,17.17
2018-06-07T09:18:59.758Z,19.20
2018-06-07T09:21:27.810Z,20.32
2018-06-07T09:23:55.868Z,16.40
2018-06-07T09:26:23.913Z,17.70
2018-06-07T09:28:51.971Z,24.98
2018-06-07T09:31:20.044Z,19.45
2018-06-07T09:33:48.081Z,15.03
2018-06-07T09:36:16.152Z,21.73
2018-06-07T09:38:44.184Z,32.83
2018-06-07T09:41:12.228Z,31.12
2018-06-07T09:43:40.515Z,23.47
2018-06-07T09:46:08.556Z,24.52
2018-06-07T09:48:36.593Z,25.72
2018-06-07T09:51:04.640Z,22.27
2018-06-07T09:53:32.680Z,33.83
2018-06-07T09:56:00.736Z,32.85
2018-06-07T09:58:28.840Z,26.12
2018-06-07T10:00:56.877Z,27.10
2018-06-07T10:03:24.925Z,42.73
2018-06-07T10:05:52.960Z,30.90
2018-06-07T10:08:21.014Z,33.70
2018-06-07T10:10:49.052Z,38.00
2018-06-07T10:13:17.150Z,41.65
2018-06-07T10:15:45.193Z,42.88
2018-06-07T10:18:13.249Z,36.25
2018-06-07T10:20:41.300Z,33.92
2018-06-07T10:23:09.365Z,27.02
2018-06-07T10:25:37.477Z,33.78
2018-06-07T10:28:05.560Z,45.88
2018-06-07T10:30:33.637Z,36.80
2018-06-07T10:33:01.720Z,30.55
2018-06-07T10:35:29.756Z,44.67
2018-06-07T10:37:57.822Z,37.48
2018-06-07T10:40:25.856Z,36.30
2018-06-07T10:42:53.907Z,38.58
2018-06-07T10:45:21.956Z,27.90
2018-06-07T10:47:50.013Z,37.55
2018-06-07T10:50:18.078Z,43.75
2018-06-07T10:52:46.170Z,43.25
2018-06-07T10:55:14.232Z,35.00
2018-06-07T10:57:42.285Z,48.83
2018-06-07T11:00:10.333Z,38.80
2018-06-07T11:02:38.391Z,56.00
2018-06-07T11:05:06.421Z,38.02
2018-06-07T11:07:34.479Z,59.50
2018-06-07T11:10:02.530Z,41.77
2018-06-07T11:12:30.603Z,39.80
2018-06-07T11:14:58.669Z,44.37
2018-06-07T11:17:26.722Z,60.90
2018-06-07T11:19:54.826Z,41.87
2018-06-07T11:22:22.888Z,45.13
2018-06-07T11:24:50.952Z,41.63
2018-06-07T11:27:18.983Z,43.53
2018-06-07T11:29:47.037Z,62.63
2018-06-07T11:32:15.085Z,37.47
2018-06-07T11:34:43.124Z,47.17
2018-06-07T11:37:11.188Z,37.07
2018-06-07T11:39:39.223Z,45.87
2018-06-07T11:42:07.416Z,62.57
2018-06-07T11:44:35.461Z,66.17
2018-06-07T11:47:03.509Z,70.73
2018-06-07T11:49:31.570Z,57.63
2018-06-07T11:51:59.615Z,79.50
2018-06-07T11:54:27.663Z,75.97
2018-06-07T11:56:55.717Z,64.53
2018-06-07T11:59:23.796Z,63.67
2018-06-07T12:01:51.845Z,70.13
2018-06-07T12:04:19.908Z,69.77
2018-06-07T12:06:47.972Z,59.33
2018-06-07T12:09:16.034Z,68.03
2018-06-07T12:11:44.103Z,69.50
2018-06-07T12:14:12.160Z,57.83
2018-06-07T12:16:40.224Z,64.93
2018-06-07T12:19:08.280Z,66.70
2018-06-07T12:21:36.353Z,62.17
2018-06-07T12:24:04.424Z,92.93
2018-06-07T12:26:32.496Z,113.60
2018-06-07T12:29:00.593Z,73.80
2018-06-07T12:31:28.662Z,81.37
2018-06-07T12:33:56.740Z,109.27
2018-06-07T12:36:24.792Z,82.80
2018-06-07T12:38:52.848Z,86.73
2018-06-07T12:41:20.915Z,105.27
2018-06-07T12:43:48.984Z,100.63
2018-06-07T12:46:17.057Z,101.97
2018-06-07T12:48:45.128Z,88.80
2018-06-07T12:51:13.203Z,109.63
2018-06-07T12:53:41.270Z,111.10
2018-06-07T12:56:09.340Z,128.80
2018-06-07T12:58:37.409Z,86.20
2018-06-07T13:01:05.472Z,98.30
2018-06-07T13:03:33.577Z,99.27
2018-06-07T13:06:01.631Z,73.47
2018-06-07T13:08:29.699Z,79.70
2018-06-07T13:10:57.753Z,71.73
2018-06-07T13:13:25.824Z,98.40
2018-06-07T13:15:53.887Z,83.73
2018-06-07T13:18:21.949Z,63.30
2018-06-07T13:20:50.007Z,67.50
2018-06-07T13:23:18.097Z,86.70
2018-06-07T13:25:46.144Z,80.20
2018-06-07T13:28:14.215Z,63.27
2018-06-07T13:30:42.263Z,91.30
2018-06-07T13:33:10.320Z,109.80
2018-06-07T13:35:38.368Z,93.80
2018-06-07T13:38:06.425Z,96.40
2018-06-07T13:40:34.485Z,101.87
2018-06-07T13:43:02.564Z,81.93
2018-06-07T13:45:30.619Z,73.07
2018-06-07T13:47:59.288Z,76.73
2018-06-07T13:50:27.356Z,109.43
2018-06-07T13:52:55.407Z,90.33
2018-06-07T13:55:23.492Z,83.50
2018-06-07T13:57:51.589Z,86.83
2018-06-07T14:00:19.624Z,105.67
2018-06-07T14:02:47.683Z,91.10
2018-06-07T14:05:15.766Z,104.30
2018-06-07T14:07:43.814Z,121.70
2018-06-07T14:10:11.888Z,84.33
2018-06-07T14:12:39.948Z,92.60
2018-06-07T14:15:08.006Z,68.33
2018-06-07T14:17:36.094Z,72.47
2018-06-07T14:20:04.131Z,89.90
2018-06-07T14:22:32.191Z,109.27
2018-06-07T14:25:00.241Z,97.87
2018-06-07T14:27:28.299Z,117.70
2018-06-07T14:29:56.362Z,94.90
2018-06-07T14:32:24.413Z,125.60
2018-06-07T14:34:52.500Z,141.87
2018-06-07T14:37:20.555Z,105.47
2018-06-07T14:39:48.622Z,109.27
2018-06-07T14:42:16.718Z,102.63
2018-06-07T14:44:44.744Z,107.57
2018-06-07T14:47:12.820Z,101.40
2018-06-07T14:49:40.888Z,106.13
2018-06-07T14:52:08.947Z,93.97
2018-06-07T14:54:37.096Z,122.97
2018-06-07T14:57:05.132Z,89.87
2018-06-07T14:59:33.204Z,114.67
2018-06-07T15:02:01.240Z,88.03
2018-06-07T15:04:29.312Z,106.87
2018-06-07T15:06:57.394Z,112.37
2018-06-07T15:09:25.464Z,122.97
2018-06-07T15:11:53.508Z,124.00
2018-06-07T15:14:21.661Z,94.97
2018-06-07T15:16:49.634Z,115.50
2018-06-07T15:19:17.693Z,115.10
2018-06-07T15:21:45.789Z,95.90
2018-06-07T15:24:13.843Z,97.23
2018-06-07T15:26:41.913Z,115.93
2018-06-07T15:29:09.972Z,125.40
2018-06-07T15:31:38.051Z,112.37
2018-06-07T15:34:06.150Z,101.07
2018-06-07T15:36:34.376Z,113.53
2018-06-07T15:39:02.429Z,122.67
2018-06-07T15:41:30.493Z,114.90
2018-06-07T15:43:58.545Z,108.13
2018-06-07T15:46:26.757Z,112.87
2018-06-07T15:48:54.802Z,110.53
2018-06-07T15:51:22.860Z,110.67
2018-06-07T15:53:50.936Z,98.30
2018-06-07T15:56:18.989Z,83.67
2018-06-07T15:58:47.044Z,101.73
2018-06-07T16:01:15.124Z,96.13
2018-06-07T16:03:43.168Z,77.90
2018-06-07T16:06:11.240Z,77.97
2018-06-07T16:08:39.296Z,60.53
2018-06-07T16:11:07.369Z,87.40
2018-06-07T16:13:35.454Z,75.00
2018-06-07T16:16:03.529Z,87.30
2018-06-07T16:18:31.584Z,68.77
2018-06-07T16:20:59.644Z,69.27
2018-06-07T16:23:27.724Z,60.57
2018-06-07T16:25:55.797Z,71.97
2018-06-07T16:28:23.856Z,94.80
2018-06-07T16:30:51.925Z,93.07
2018-06-07T16:33:23.928Z,99.40
2018-06-07T16:35:54.117Z,64.47
2018-06-07T16:38:22.898Z,63.97
2018-06-07T16:40:51.109Z,49.93
2018-06-07T16:43:19.584Z,73.60
2018-06-07T16:45:47.644Z,85.97
2018-06-07T16:48:15.724Z,64.07
2018-06-07T16:50:43.826Z,52.58
2018-06-07T16:53:12.720Z,57.83
2018-06-07T16:55:40.792Z,53.55
2018-06-07T16:58:12.005Z,91.15
2018-06-07T17:00:40.085Z,68.92
2018-06-07T17:03:08.207Z,53.60
2018-06-07T17:05:36.281Z,78.15
2018-06-07T17:08:04.589Z,63.80
2018-06-07T17:10:32.669Z,70.62
2018-06-07T17:13:00.750Z,68.57
2018-06-07T17:15:28.828Z,58.95
2018-06-07T17:17:56.903Z,57.17
2018-06-07T17:20:24.973Z,57.15
2018-06-07T17:22:53.096Z,56.40
2018-06-07T17:25:21.116Z,53.48
2018-06-07T17:27:49.187Z,52.58
2018-06-07T17:30:17.298Z,44.83
2018-06-07T17:32:45.404Z,70.60
2018-06-07T17:35:13.467Z,44.33
2018-06-07T17:37:41.527Z,47.40
2018-06-07T17:40:09.571Z,57.62
2018-06-07T17:42:37.627Z,47.23
2018-06-07T17:45:05.694Z,55.48
2018-06-07T17:47:33.784Z,56.30
2018-06-07T17:50:01.856Z,53.60
2018-06-07T17:52:29.947Z,56.10
2018-06-07T17:54:58.001Z,61.85
2018-06-07T17:57:26.057Z,71.10
2018-06-07T17:59:54.139Z,50.15
2018-06-07T18:02:22.200Z,56.92
2018-06-07T18:04:50.273Z,65.67
2018-06-07T18:07:18.348Z,54.90
2018-06-07T18:09:46.396Z,53.83
2018-06-07T18:12:14.459Z,48.92
2018-06-07T18:14:42.524Z,41.10
2018-06-07T18:17:10.572Z,43.58
2018-06-07T18:19:38.621Z,36.95
2018-06-07T18:22:06.697Z,39.35
2018-06-07T18:24:35.316Z,52.65
2018-06-07T18:27:03.512Z,42.03
2018-06-07T18:29:31.577Z,36.83
2018-06-07T18:31:59.645Z,28.92
2018-06-07T18:34:27.919Z,30.20
2018-06-07T18:37:03.821Z,40.88
2018-06-07T18:39:32.978Z,37.50
2018-06-07T18:42:01.213Z,29.82
2018-06-07T18:44:29.261Z,33.38
2018-06-07T18:46:57.333Z,21.55
2018-06-07T18:49:25.383Z,28.15
2018-06-07T18:51:53.568Z,24.63
2018-06-07T18:54:21.640Z,33.58
2018-06-07T18:56:49.671Z,32.13
2018-06-07T18:59:17.720Z,21.48
2018-06-07T19:01:45.752Z,24.18
2018-06-07T19:04:13.806Z,27.35
2018-06-07T19:06:41.990Z,20.70
2018-06-07T19:09:15.509Z,25.72
2018-06-07T19:11:43.549Z,24.90
2018-06-07T19:15:14.756Z,26.50
2018-06-07T19:17:42.827Z,26.93
2018-06-07T19:21:15.777Z,26.52
2018-06-07T19:23:43.825Z,22.05
2018-06-07T19:26:17.397Z,24.65
2018-06-07T19:28:45.440Z,21.55
2018-06-07T19:31:13.497Z,27.98
2018-06-07T19:33:47.102Z,16.32
2018-06-07T19:36:15.169Z,20.90
2018-06-07T19:38:48.692Z,24.80
2018-06-07T19:41:22.135Z,21.40
2018-06-07T19:43:50.173Z,19.95
2018-06-07T19:46:18.239Z,25.27
2018-06-07T19:48:46.298Z,15.55
2018-06-07T19:51:14.344Z,18.05
2018-06-07T19:53:43.134Z,18.62
2018-06-07T19:56:11.197Z,24.10
2018-06-07T19:58:39.240Z,21.12
2018-06-07T20:01:07.301Z,15.13
2018-06-07T20:03:35.331Z,20.75
2018-06-07T20:06:05.928Z,24.87
2018-06-07T20:08:34.077Z,22.80
2018-06-07T20:11:02.062Z,22.40
2018-06-07T20:13:30.928Z,25.40
2018-06-07T20:15:59.177Z,17.95
2018-06-07T20:18:27.248Z,20.10
2018-06-07T20:20:55.304Z,17.02
2018-06-07T20:23:23.369Z,19.60
2018-06-07T20:25:51.434Z,22.77
2018-06-07T20:28:19.569Z,21.80
2018-06-07T20:30:47.628Z,15.98
2018-06-07T20:33:15.700Z,15.00
2018-06-07T20:35:43.772Z,15.60
2018-06-07T20:38:11.833Z,17.65
2018-06-07T20:40:39.888Z,15.40
2018-06-07T20:43:07.973Z,16.10
2018-06-07T20:45:36.043Z,13.08
2018-06-07T20:48:04.115Z,21.82
2018-06-07T20:50:32.270Z,22.95
2018-06-07T20:53:00.297Z,18.10
2018-06-07T20:55:28.400Z,16.27
2018-06-07T20:57:56.476Z,14.18
2018-06-07T21:00:24.536Z,12.63
2018-06-07T21:02:52.608Z,16.85
2018-06-07T21:05:20.663Z,17.55
2018-06-07T21:07:48.761Z,10.78
2018-06-07T21:10:16.816Z,16.70
2018-06-07T21:12:44.891Z,10.80
2018-06-07T21:15:12.956Z,14.23
2018-06-07T21:17:41.019Z,10.65
2018-06-07T21:20:09.076Z,10.82
2018-06-07T21:22:37.131Z,13.38
2018-06-07T21:25:05.200Z,12.70
2018-06-07T21:27:33.247Z,11.90
2018-06-07T21:30:01.308Z,13.35
2018-06-07T21:32:29.384Z,11.08
2018-06-07T21:34:57.457Z,12.10
2018-06-07T21:37:25.512Z,15.90
2018-06-07T21:39:53.557Z,13.40
2018-06-07T21:42:21.645Z,9.33
2018-06-07T21:44:49.691Z,8.88
2018-06-07T21:47:17.756Z,10.32
2018-06-07T21:49:45.801Z,6.40
2018-06-07T21:52:13.861Z,7.90
2018-06-07T21:54:41.917Z,6.37
2018-06-07T21:57:09.971Z,9.68
2018-06-07T21:59:38.028Z,8.30
2018-06-07T22:02:06.229Z,8.00
2018-06-07T22:04:34.301Z,6.70
2018-06-07T22:07:02.349Z,7.62
2018-06-07T22:09:30.433Z,6.75
2018-06-07T22:11:58.476Z,6.25
2018-06-07T22:14:26.575Z,7.90
2018-06-07T22:16:54.584Z,7.37
2018-06-07T22:19:22.645Z,8.13
2018-06-07T22:21:50.704Z,6.33
2018-06-07T22:24:18.765Z,7.85
2018-06-07T22:26:46.820Z,8.28
2018-06-07T22:29:14.905Z,8.50
2018-06-07T22:31:42.963Z,10.00
2018-06-07T22:34:11.058Z,7.90
2018-06-07T22:36:39.103Z,8.33
2018-06-07T22:39:08.220Z,5.90
2018-06-07T22:41:36.289Z,6.30
2018-06-07T22:44:04.383Z,6.78
2018-06-07T22:46:32.439Z,5.95
2018-06-07T22:49:00.504Z,7.28
2018-06-07T22:51:28.552Z,7.90
2018-06-07T22:53:56.630Z,10.18
2018-06-07T22:56:24.676Z,7.85
2018-06-07T22:58:52.727Z,8.25
2018-06-07T23:01:20.796Z,7.25
2018-06-07T23:03:48.839Z,8.75
2018-06-07T23:06:16.886Z,8.20
2018-06-07T23:08:44.959Z,7.47
2018-06-07T23:11:13.048Z,6.25
2018-06-07T23:13:41.084Z,7.83
2018-06-07T23:16:09.136Z,9.05
2018-06-07T23:18:37.172Z,6.97
2018-06-07T23:21:05.200Z,5.85
2018-06-07T23:23:33.317Z,5.35
2018-06-07T23:26:01.378Z,7.03
2018-06-07T23:28:29.426Z,6.70
2018-06-07T23:30:57.472Z,10.55
2018-06-07T23:33:25.524Z,6.75
2018-06-07T23:35:53.582Z,6.22
2018-06-07T23:38:21.629Z,4.80
2018-06-07T23:40:49.673Z,5.15
2018-06-07T23:43:17.719Z,5.80
2018-06-07T23:45:45.800Z,7.80
2018-06-07T23:48:13.876Z,5.35
2018-06-07T23:50:41.936Z,5.47
2018-06-07T23:53:09.984Z,6.62
2018-06-07T23:55:38.043Z,5.12
2018-06-07T23:58:06.097Z,5.60
